Terminal Aerodrome Forecast
Issued by NWS Jackson, MS

Home | Current Version | Previous Version | Text Only | Print | Product List | Glossary On
Versions: 1 2 3 4 5 6 7 8 9 10 11 12
000
FTUS44 KJAN 241700
TAFHBG
TAF
KHBG 241720Z 2418/2518 35006KT P6SM SKC
     FM250900 00000KT 4SM BR SKC
     FM251400 35005KT P6SM SKC=

USA.gov is the U.S. government's official web portal to all federal, state and local government web resources and services.